Time;durP1;ratioP1;P1;durP2;ratioP2;P2;SDS_P1;SDS_P2;PMS_P1;PMS_P2;Temp;Humidity;BMP_temperature;BMP_pressure;BME280_temperature;BME280_humidity;BME280_pressure;Samples;Min_cycle;Max_cycle;Signal;HPM_P1;HPM_P2
2022/07/02 00:00:47;;;;;;;16.55;15.75;;;;;;;-141.02;100.00;55844.97;5133555;27;20823;-76
2022/07/02 00:03:16;;;;;;;16.38;15.57;;;;;;;-141.02;100.00;55844.97;5133824;27;20265;-77
2022/07/02 00:05:48;;;;;;;16.73;15.93;;;;;;;-141.02;100.00;55844.97;5133433;27;20232;-76
2022/07/02 00:08:19;;;;;;;16.00;15.30;;;;;;;-141.02;100.00;55844.97;5133427;27;20235;-76
2022/07/02 00:10:50;;;;;;;16.00;15.30;;;;;;;-141.02;100.00;55844.97;5133716;27;20227;-77
2022/07/02 00:13:17;;;;;;;16.48;15.68;;;;;;;-141.02;100.00;55844.97;5133737;27;20218;-77
2022/07/02 00:15:45;;;;;;;16.35;15.60;;;;;;;-141.02;100.00;55844.97;5133127;27;20224;-77
2022/07/02 00:18:12;;;;;;;16.65;15.85;;;;;;;-141.02;100.00;55844.97;5133517;27;20193;-76
2022/07/02 00:20:40;;;;;;;16.58;15.77;;;;;;;-141.02;100.00;55844.97;5133191;27;20236;-77
2022/07/02 00:23:07;;;;;;;16.70;15.90;;;;;;;-141.02;100.00;55844.97;5133524;27;20225;-77
2022/07/02 00:25:39;;;;;;;16.40;15.68;;;;;;;-141.02;100.00;55844.97;5133064;27;20663;-77
2022/07/02 00:28:08;;;;;;;16.80;16.00;;;;;;;-141.02;100.00;55844.97;5133531;27;20185;-77
2022/07/02 00:30:35;;;;;;;16.52;15.82;;;;;;;-141.02;100.00;55844.97;5133042;27;20197;-77
2022/07/02 00:33:02;;;;;;;16.80;16.00;;;;;;;-141.02;100.00;55844.97;5133047;27;20282;-77
2022/07/02 00:35:30;;;;;;;16.50;15.80;;;;;;;-141.02;100.00;55844.97;5133021;27;20279;-77
2022/07/02 00:37:58;;;;;;;16.33;15.63;;;;;;;-141.02;100.00;55844.97;5133067;27;20310;-76
2022/07/02 00:40:26;;;;;;;16.30;15.60;;;;;;;-141.02;100.00;55844.97;5133265;27;20209;-76
2022/07/02 00:42:53;;;;;;;16.55;15.85;;;;;;;-141.02;100.00;55844.97;5132934;28;20737;-77
2022/07/02 00:45:23;;;;;;;16.85;16.05;;;;;;;-141.02;100.00;55844.97;5133251;28;20577;-77
2022/07/02 00:47:51;;;;;;;15.48;14.88;;;;;;;-141.02;100.00;55844.97;5132931;28;20224;-77
2022/07/02 00:50:17;;;;;;;16.48;15.77;;;;;;;-141.02;100.00;55844.97;5132928;27;20203;-77
2022/07/02 00:52:44;;;;;;;16.23;15.52;;;;;;;-141.02;100.00;55844.97;5132848;28;20231;-76
2022/07/02 00:55:13;;;;;;;16.05;15.35;;;;;;;-141.02;100.00;55844.97;5133104;28;20195;-77
2022/07/02 00:57:41;;;;;;;16.10;15.40;;;;;;;-141.02;100.00;55844.97;5133143;28;20230;-77
2022/07/02 01:00:09;;;;;;;15.95;15.25;;;;;;;-141.02;100.00;55844.97;5132695;28;20319;-76
2022/07/02 01:02:39;;;;;;;15.85;15.15;;;;;;;-141.02;100.00;55844.97;5133089;27;20623;-76
2022/07/02 01:05:07;;;;;;;16.13;15.43;;;;;;;-141.02;100.00;55844.97;5133056;28;20321;-76
2022/07/02 01:07:36;;;;;;;15.55;14.95;;;;;;;-141.02;100.00;55844.97;5132704;28;20228;-76
2022/07/02 01:10:18;;;;;;;15.73;15.13;;;;;;;-141.02;100.00;55844.97;5132678;28;20249;-77
2022/07/02 01:12:46;;;;;;;15.60;15.00;;;;;;;-141.02;100.00;55844.97;5133043;28;20189;-77
2022/07/02 01:15:14;;;;;;;15.35;14.75;;;;;;;-141.02;100.00;55844.97;5132697;27;20197;-76
2022/07/02 01:17:43;;;;;;;15.68;15.07;;;;;;;-141.02;100.00;55844.97;5132957;28;20582;-77
2022/07/02 01:20:11;;;;;;;15.50;14.90;;;;;;;-141.02;100.00;55844.97;5132844;28;20311;-76
2022/07/02 01:22:40;;;;;;;15.30;14.70;;;;;;;-141.02;100.00;55844.97;5132524;28;20288;-76
2022/07/02 01:25:08;;;;;;;15.00;14.40;;;;;;;-141.02;100.00;55844.97;5132865;27;20570;-77
2022/07/02 01:27:36;;;;;;;14.43;13.93;;;;;;;-141.02;100.00;55844.97;5134050;27;20219;-77
2022/07/02 01:30:04;;;;;;;15.07;14.48;;;;;;;-141.02;100.00;55844.97;5137614;27;20283;-76
2022/07/02 01:32:31;;;;;;;15.10;14.50;;;;;;;-141.02;100.00;55844.97;5136713;27;20217;-76
2022/07/02 01:35:04;;;;;;;15.27;14.68;;;;;;;-141.02;100.00;55844.97;5136657;27;20276;-76
2022/07/02 01:37:31;;;;;;;14.95;14.35;;;;;;;-141.02;100.00;55844.97;5136177;27;20709;-77
2022/07/02 01:39:59;;;;;;;15.02;14.43;;;;;;;-141.02;100.00;55844.97;5136197;27;20757;-77
2022/07/02 01:42:26;;;;;;;15.23;14.63;;;;;;;-141.02;100.00;55844.97;5136485;27;20199;-77
2022/07/02 01:44:53;;;;;;;15.27;14.68;;;;;;;-141.02;100.00;55844.97;5136446;27;20197;-77
2022/07/02 01:47:20;;;;;;;15.02;14.43;;;;;;;-141.02;100.00;55844.97;5136156;27;20192;-76
2022/07/02 01:49:47;;;;;;;14.57;14.07;;;;;;;-141.02;100.00;55844.97;5136098;27;20670;-76
2022/07/02 01:52:15;;;;;;;14.85;14.25;;;;;;;-141.02;100.00;55844.97;5136352;27;20200;-76
2022/07/02 01:54:42;;;;;;;14.85;14.25;;;;;;;-141.02;100.00;55844.97;5136310;27;20203;-76
2022/07/02 01:57:11;;;;;;;14.85;14.25;;;;;;;-141.02;100.00;55844.97;5135940;27;20188;-77
2022/07/02 01:59:38;;;;;;;15.00;14.40;;;;;;;-141.02;100.00;55844.97;5136119;27;20228;-77
2022/07/02 02:02:06;;;;;;;14.55;14.05;;;;;;;-141.02;100.00;55844.97;5136168;27;20224;-77
2022/07/02 02:04:34;;;;;;;14.77;14.18;;;;;;;-141.02;100.00;55844.97;5136137;27;20192;-77
2022/07/02 02:07:02;;;;;;;13.80;13.30;;;;;;;-141.02;100.00;55844.97;5135792;27;20193;-76
2022/07/02 02:09:29;;;;;;;14.40;13.90;;;;;;;-141.02;100.00;55844.97;5136541;27;20207;-77
2022/07/02 02:11:56;;;;;;;14.80;14.20;;;;;;;-141.02;100.00;55844.97;5135665;27;20575;-76
2022/07/02 02:14:25;;;;;;;14.35;13.85;;;;;;;-141.02;100.00;55844.97;5135928;27;20224;-77
2022/07/02 02:16:52;;;;;;;14.07;13.57;;;;;;;-141.02;100.00;55844.97;5135892;27;20230;-77
2022/07/02 02:19:19;;;;;;;14.20;13.70;;;;;;;-141.02;100.00;55844.97;5135783;27;20376;-77
2022/07/02 02:21:46;;;;;;;13.88;13.38;;;;;;;-141.02;100.00;55844.97;5135455;27;20196;-76
2022/07/02 02:24:14;;;;;;;14.05;13.55;;;;;;;-141.02;100.00;55844.97;5135410;27;20203;-76
2022/07/02 02:26:41;;;;;;;13.73;13.23;;;;;;;-141.02;100.00;55844.97;5135311;27;20189;-77
2022/07/02 02:29:08;;;;;;;13.77;13.27;;;;;;;-141.02;100.00;55844.97;5135358;27;20733;-77
2022/07/02 02:31:36;;;;;;;14.27;13.77;;;;;;;-141.02;100.00;55844.97;5135270;27;20223;-78
2022/07/02 02:34:03;;;;;;;14.40;13.85;;;;;;;-141.02;100.00;55844.97;5135235;27;20668;-76
2022/07/02 02:36:30;;;;;;;13.98;13.48;;;;;;;-141.02;100.00;55844.97;5135194;27;20573;-77
2022/07/02 02:38:57;;;;;;;14.23;13.73;;;;;;;-141.02;100.00;55844.97;5134436;27;20259;-77
2022/07/02 02:41:25;;;;;;;14.45;13.93;;;;;;;-141.02;100.00;55844.97;5135073;27;20620;-77
2022/07/02 02:43:52;;;;;;;14.52;14.02;;;;;;;-141.02;100.00;55844.97;5135325;27;20188;-77
2022/07/02 02:46:19;;;;;;;14.40;13.90;;;;;;;-141.02;100.00;55844.97;5134976;27;20283;-76
2022/07/02 02:48:47;;;;;;;14.68;14.18;;;;;;;-141.02;100.00;55844.97;5134977;27;20192;-77
2022/07/02 02:51:15;;;;;;;15.00;14.40;;;;;;;-141.02;100.00;55844.97;5135179;27;20196;-76
2022/07/02 02:53:43;;;;;;;15.40;14.80;;;;;;;-141.02;100.00;55844.97;5134868;27;20731;-77
2022/07/02 02:56:11;;;;;;;15.10;14.50;;;;;;;-141.02;100.00;55844.97;5134760;27;20546;-77
2022/07/02 02:58:38;;;;;;;15.00;14.40;;;;;;;-141.02;100.00;55844.97;5135039;27;20295;-77
2022/07/02 03:01:05;;;;;;;15.30;14.70;;;;;;;-141.02;100.00;55844.97;5134907;27;20371;-76
2022/07/02 03:03:33;;;;;;;15.20;14.60;;;;;;;-141.02;100.00;55844.97;5134975;27;20225;-77
2022/07/02 03:06:01;;;;;;;15.32;14.73;;;;;;;-141.02;100.00;55844.97;5134573;27;20285;-76
2022/07/02 03:08:28;;;;;;;14.88;14.27;;;;;;;-141.02;100.00;55844.97;5134780;27;20196;-76
2022/07/02 03:10:55;;;;;;;14.20;13.70;;;;;;;-141.02;100.00;55844.97;5134800;27;20228;-76
2022/07/02 03:13:22;;;;;;;14.25;13.75;;;;;;;-141.02;100.00;55844.97;5134409;27;20279;-77
2022/07/02 03:15:49;;;;;;;14.40;13.90;;;;;;;-141.02;100.00;55844.97;5134416;27;20192;-77
2022/07/02 03:18:16;;;;;;;14.25;13.75;;;;;;;-141.02;100.00;55844.97;5134621;27;20320;-76
2022/07/02 03:20:43;;;;;;;14.15;13.65;;;;;;;-141.02;100.00;55844.97;5134542;27;20228;-77
2022/07/02 03:23:12;;;;;;;14.57;14.05;;;;;;;-141.02;100.00;55844.97;5134583;27;20283;-76
2022/07/02 03:25:39;;;;;;;14.40;13.90;;;;;;;-141.02;100.00;55844.97;5134508;27;20241;-77
2022/07/02 03:28:06;;;;;;;14.07;13.57;;;;;;;-141.02;100.00;55844.97;5134426;27;20253;-76
2022/07/02 03:30:33;;;;;;;14.60;14.00;;;;;;;-141.02;100.00;55844.97;5134064;27;20228;-76
2022/07/02 03:33:00;;;;;;;15.13;14.52;;;;;;;-141.02;100.00;55844.97;5134140;27;20241;-76
2022/07/02 03:35:27;;;;;;;15.20;14.60;;;;;;;-141.02;100.00;55844.97;5134007;27;20287;-76
2022/07/02 03:37:54;;;;;;;15.80;15.10;;;;;;;-141.02;100.00;55844.97;5133761;27;20228;-77
2022/07/02 03:40:22;;;;;;;16.00;15.30;;;;;;;-141.02;100.00;55844.97;5133886;27;20209;-76
2022/07/02 03:42:49;;;;;;;15.95;15.25;;;;;;;-141.02;100.00;55844.97;5134174;27;20224;-77
2022/07/02 03:45:16;;;;;;;16.23;15.52;;;;;;;-141.02;100.00;55844.97;5134132;27;20279;-76
2022/07/02 03:47:43;;;;;;;16.48;15.77;;;;;;;-141.02;100.00;55844.97;5133763;27;20694;-76
2022/07/02 03:50:10;;;;;;;16.60;15.90;;;;;;;-141.02;100.00;55844.97;5132972;27;20287;-76
2022/07/02 03:52:39;;;;;;;16.60;15.90;;;;;;;-141.02;100.00;55844.97;5133986;27;20250;-77
2022/07/02 03:55:07;;;;;;;16.42;15.73;;;;;;;-141.02;100.00;55844.97;5133601;27;20647;-76
2022/07/02 03:57:36;;;;;;;16.52;15.82;;;;;;;-141.02;100.00;55844.97;5133528;27;20611;-77
2022/07/02 04:00:04;;;;;;;16.60;15.90;;;;;;;-141.02;100.00;55844.97;5133802;27;20293;-76
2022/07/02 04:02:31;;;;;;;16.20;15.50;;;;;;;-141.02;100.00;55844.97;5133867;27;20216;-77
2022/07/02 04:04:58;;;;;;;16.40;15.70;;;;;;;-141.02;100.00;55844.97;5133776;27;20189;-76
2022/07/02 04:07:25;;;;;;;16.80;16.00;;;;;;;-141.02;100.00;55844.97;5133406;27;20680;-76
2022/07/02 04:09:52;;;;;;;16.60;15.80;;;;;;;-141.02;100.00;55844.97;5133699;27;20224;-76
2022/07/02 04:12:19;;;;;;;17.40;16.50;;;;;;;-141.02;100.00;55844.97;5133338;27;20231;-77
2022/07/02 04:14:47;;;;;;;17.58;16.67;;;;;;;-141.02;100.00;55844.97;5133298;27;20626;-77
2022/07/02 04:17:14;;;;;;;17.15;16.35;;;;;;;-141.02;100.00;55844.97;5133632;27;20298;-77
2022/07/02 04:19:41;;;;;;;17.05;16.25;;;;;;;-141.02;100.00;55844.97;5133148;27;20271;-77
2022/07/02 04:22:08;;;;;;;17.35;16.45;;;;;;;-141.02;100.00;55844.97;5133190;27;20192;-77
2022/07/02 04:24:35;;;;;;;17.50;16.60;;;;;;;-141.02;100.00;55844.97;5133182;27;20253;-76
2022/07/02 04:27:02;;;;;;;17.27;16.38;;;;;;;-141.02;100.00;55844.97;5133463;27;20305;-77
2022/07/02 04:29:29;;;;;;;17.42;16.52;;;;;;;-141.02;100.00;55844.97;5133414;27;20667;-76
2022/07/02 04:31:58;;;;;;;17.77;16.77;;;;;;;-141.02;100.00;55844.97;5133382;27;20315;-76
2022/07/02 04:34:25;;;;;;;17.85;16.85;;;;;;;-141.02;100.00;55844.97;5133987;27;20196;-76
2022/07/02 04:36:52;;;;;;;17.90;16.90;;;;;;;-141.02;100.00;55844.97;5133332;27;20188;-76
2022/07/02 04:39:19;;;;;;;18.13;17.13;;;;;;;-141.02;100.00;55844.97;5132804;27;20266;-76
2022/07/02 04:41:46;;;;;;;17.85;16.85;;;;;;;-141.02;100.00;55844.97;5132919;27;20275;-77
2022/07/02 04:44:13;;;;;;;17.85;16.85;;;;;;;-141.02;100.00;55844.97;5133127;28;20564;-77
2022/07/02 04:46:40;;;;;;;18.33;17.33;;;;;;;-141.02;100.00;55844.97;5132946;27;20200;-77
2022/07/02 04:49:09;;;;;;;17.95;16.95;;;;;;;-141.02;100.00;55844.97;5132838;28;20735;-76
2022/07/02 04:51:36;;;;;;;18.08;17.08;;;;;;;-141.02;100.00;55844.97;5133206;27;20228;-77
2022/07/02 04:54:03;;;;;;;18.02;17.02;;;;;;;-141.02;100.00;55844.97;5132852;28;20283;-76
2022/07/02 04:56:30;;;;;;;18.35;17.35;;;;;;;-141.02;100.00;55844.97;5133670;27;20283;-77
2022/07/02 04:58:57;;;;;;;18.15;17.15;;;;;;;-141.02;100.00;55844.97;5132775;27;20249;-76
2022/07/02 05:01:24;;;;;;;18.05;17.05;;;;;;;-141.02;100.00;55844.97;5134039;27;20314;-76
2022/07/02 05:03:51;;;;;;;18.00;17.00;;;;;;;-141.02;100.00;55844.97;5137265;27;20189;-77
2022/07/02 05:06:21;;;;;;;17.88;16.88;;;;;;;-141.02;100.00;55844.97;5136877;27;20692;-77
2022/07/02 05:08:48;;;;;;;17.92;16.92;;;;;;;-141.02;100.00;55844.97;5136875;27;20196;-77
2022/07/02 05:11:18;;;;;;;18.10;17.10;;;;;;;-141.02;100.00;55844.97;5137133;27;20192;-76
2022/07/02 05:13:45;;;;;;;18.05;17.05;;;;;;;-141.02;100.00;55844.97;5137091;27;20195;-76
2022/07/02 05:16:12;;;;;;;18.30;17.30;;;;;;;-141.02;100.00;55844.97;5137096;27;20235;-76
2022/07/02 05:18:39;;;;;;;18.25;17.25;;;;;;;-141.02;100.00;55844.97;5137835;27;20228;-76
2022/07/02 05:21:06;;;;;;;18.52;17.42;;;;;;;-141.02;100.00;55844.97;5136983;27;20645;-77
2022/07/02 05:23:35;;;;;;;18.38;17.38;;;;;;;-141.02;100.00;55844.97;5136881;27;20224;-76
2022/07/02 05:26:02;;;;;;;17.88;16.98;;;;;;;-141.02;100.00;55844.97;5136765;27;20245;-76
2022/07/02 05:28:29;;;;;;;18.05;17.05;;;;;;;-141.02;100.00;55844.97;5136509;27;20197;-77
2022/07/02 05:30:56;;;;;;;18.48;17.48;;;;;;;-141.02;100.00;55844.97;5136773;27;20738;-76
2022/07/02 05:33:23;;;;;;;18.45;17.45;;;;;;;-141.02;100.00;55844.97;5136469;27;20700;-77
2022/07/02 05:35:50;;;;;;;18.50;17.50;;;;;;;-141.02;100.00;55844.97;5136681;27;20223;-77
2022/07/02 05:38:18;;;;;;;17.95;16.95;;;;;;;-141.02;100.00;55844.97;5136341;27;20228;-77
2022/07/02 05:40:47;;;;;;;17.20;16.30;;;;;;;-141.02;100.00;55844.97;5136187;27;20220;-76
2022/07/02 05:43:14;;;;;;;17.08;16.17;;;;;;;-141.02;100.00;55844.97;5136567;27;20271;-76
2022/07/02 05:45:41;;;;;;;17.23;16.33;;;;;;;-141.02;100.00;55844.97;5136201;27;20238;-76
2022/07/02 05:48:08;;;;;;;18.08;17.08;;;;;;;-141.02;100.00;55844.97;5136423;27;20271;-76
2022/07/02 05:50:35;;;;;;;17.70;16.80;;;;;;;-141.02;100.00;55844.97;5136421;27;20214;-76
2022/07/02 05:53:02;;;;;;;18.23;17.23;;;;;;;-141.02;100.00;55844.97;5136003;27;20198;-75
2022/07/02 05:55:29;;;;;;;18.30;17.30;;;;;;;-141.02;100.00;55844.97;5135973;27;20700;-76
2022/07/02 05:57:58;;;;;;;18.08;17.17;;;;;;;-141.02;100.00;55844.97;5136238;27;20249;-76
2022/07/02 06:00:25;;;;;;;18.50;17.40;;;;;;;-141.02;100.00;55844.97;5136124;27;20311;-73
2022/07/02 06:02:52;;;;;;;17.90;17.00;;;;;;;-141.02;100.00;55844.97;5135820;27;20656;-76
2022/07/02 06:08:18;;;;;;;17.33;16.42;;;;;;;-141.02;100.00;55844.97;5072528;28;20198;-76
2022/07/02 06:10:45;;;;;;;17.63;16.73;;;;;;;-141.02;100.00;55844.97;5072489;28;20704;-75
2022/07/02 06:13:16;;;;;;;17.92;16.95;;;;;;;-141.02;100.00;55844.97;5099163;27;20224;-76
2022/07/02 06:15:43;;;;;;;17.67;16.77;;;;;;;-141.02;100.00;55844.97;5135720;27;20227;-76
2022/07/02 06:18:12;;;;;;;17.90;16.90;;;;;;;-141.02;100.00;55844.97;5135626;27;20646;-76
2022/07/02 06:20:39;;;;;;;17.58;16.65;;;;;;;-141.02;100.00;55844.97;5135449;27;20231;-76
2022/07/02 06:23:06;;;;;;;18.10;17.10;;;;;;;-141.02;100.00;55844.97;5135776;27;20192;-77
2022/07/02 06:25:33;;;;;;;19.00;17.90;;;;;;;-141.02;100.00;55844.97;5135328;27;20632;-76
2022/07/02 06:28:01;;;;;;;18.77;17.77;;;;;;;-141.02;100.00;55844.97;5135426;27;20287;-76
2022/07/02 06:30:29;;;;;;;18.15;17.15;;;;;;;-141.02;100.00;55844.97;5135250;27;20215;-76
2022/07/02 06:32:56;;;;;;;18.33;17.33;;;;;;;-141.02;100.00;55844.97;5135662;27;20246;-75
2022/07/02 06:35:23;;;;;;;18.73;17.73;;;;;;;-141.02;100.00;55844.97;5135245;27;20219;-76
2022/07/02 06:37:52;;;;;;;18.60;17.60;;;;;;;-141.02;100.00;55844.97;5135230;27;20236;-76
2022/07/02 06:40:19;;;;;;;18.70;17.70;;;;;;;-141.02;100.00;55844.97;5135126;27;20589;-77
2022/07/02 06:42:46;;;;;;;18.42;17.42;;;;;;;-141.02;100.00;55844.97;5135330;27;20220;-76
2022/07/02 06:45:13;;;;;;;18.15;17.15;;;;;;;-141.02;100.00;55844.97;5135026;27;20192;-76
2022/07/02 06:47:43;;;;;;;18.50;17.50;;;;;;;-141.02;100.00;55844.97;5134936;27;20284;-76
2022/07/02 06:50:11;;;;;;;18.05;17.05;;;;;;;-141.02;100.00;55844.97;5135229;27;20287;-75
2022/07/02 06:52:38;;;;;;;17.95;16.95;;;;;;;-141.02;100.00;55844.97;5135174;27;20202;-76
2022/07/02 06:55:06;;;;;;;17.63;16.63;;;;;;;-141.02;100.00;55844.97;5134750;27;20238;-76
2022/07/02 06:57:35;;;;;;;18.00;17.00;;;;;;;-141.02;100.00;55844.97;5134807;27;20196;-76
2022/07/02 07:00:02;;;;;;;18.17;17.17;;;;;;;-141.02;100.00;55844.97;5134718;27;20658;-76
2022/07/02 07:02:29;;;;;;;18.70;17.63;;;;;;;-141.02;100.00;55844.97;5135017;27;20200;-75
2022/07/02 07:04:58;;;;;;;18.40;17.40;;;;;;;-141.02;100.00;55844.97;5134944;27;20193;-76
2022/07/02 07:07:27;;;;;;;18.27;17.27;;;;;;;-141.02;100.00;55844.97;5134893;27;20218;-75
2022/07/02 07:09:54;;;;;;;18.13;17.13;;;;;;;-141.02;100.00;55844.97;5134538;27;20650;-75
2022/07/02 07:12:22;;;;;;;17.92;16.92;;;;;;;-141.02;100.00;55844.97;5134820;27;20246;-76
2022/07/02 07:14:49;;;;;;;18.67;17.58;;;;;;;-141.02;100.00;55844.97;5134418;27;20236;-74
2022/07/02 07:17:17;;;;;;;18.05;17.05;;;;;;;-141.02;100.00;55844.97;5134357;27;20685;-75
2022/07/02 07:19:44;;;;;;;17.85;16.85;;;;;;;-141.02;100.00;55844.97;5134329;27;20575;-74
2022/07/02 07:22:13;;;;;;;18.45;17.45;;;;;;;-141.02;100.00;55844.97;5134229;27;20784;-75
2022/07/02 07:24:40;;;;;;;18.25;17.15;;;;;;;-141.02;100.00;55844.97;5134170;27;20653;-76
2022/07/02 07:27:07;;;;;;;18.77;17.67;;;;;;;-141.02;100.00;55844.97;5134472;27;20193;-76
2022/07/02 07:29:35;;;;;;;17.85;16.85;;;;;;;-141.02;100.00;55844.97;5134442;27;20246;-76
2022/07/02 07:32:02;;;;;;;18.35;17.25;;;;;;;-141.02;100.00;55844.97;5134413;27;20223;-75
2022/07/02 07:34:29;;;;;;;18.52;17.42;;;;;;;-141.02;100.00;55844.97;5133967;27;20188;-76
2022/07/02 07:36:58;;;;;;;24.67;23.17;;;;;;;-141.02;100.00;55844.97;5134075;27;20200;-75
2022/07/02 07:39:27;;;;;;;20.95;19.75;;;;;;;-141.02;100.00;55844.97;5133743;27;20281;-76
2022/07/02 07:41:54;;;;;;;18.45;17.35;;;;;;;-141.02;100.00;55844.97;5134117;27;20220;-76
2022/07/02 07:44:21;;;;;;;18.55;17.45;;;;;;;-141.02;100.00;55844.97;5134089;27;20265;-77
2022/07/02 07:46:48;;;;;;;18.80;17.70;;;;;;;-141.02;100.00;55844.97;5134180;27;20248;-75
2022/07/02 07:49:15;;;;;;;19.90;18.70;;;;;;;-141.02;100.00;55844.97;5134083;27;20188;-76
2022/07/02 07:51:42;;;;;;;18.52;17.42;;;;;;;-141.02;100.00;55844.97;5133799;27;20196;-76
2022/07/02 07:54:09;;;;;;;23.20;21.90;;;;;;;-141.02;100.00;55844.97;5133627;27;20249;-75
2022/07/02 07:56:41;;;;;;;19.23;18.13;;;;;;;-141.02;100.00;55844.97;5133965;27;20265;-75
2022/07/02 07:59:08;;;;;;;20.63;19.42;;;;;;;-141.02;100.00;55844.97;5133604;27;20208;-76
2022/07/02 08:01:35;;;;;;;21.25;20.05;;;;;;;-141.02;100.00;55844.97;5133792;27;20224;-75
2022/07/02 08:04:02;;;;;;;23.42;22.13;;;;;;;-141.02;100.00;55844.97;5133804;27;20193;-75
2022/07/02 08:06:29;;;;;;;18.00;16.90;;;;;;;-141.02;100.00;55844.97;5133729;27;20249;-75
2022/07/02 08:08:57;;;;;;;20.58;19.38;;;;;;;-141.02;100.00;55844.97;5133437;27;20235;-76
2022/07/02 08:11:24;;;;;;;19.75;18.55;;;;;;;-141.02;100.00;55844.97;5133330;27;20203;-76
2022/07/02 08:13:52;;;;;;;19.58;18.38;;;;;;;-141.02;100.00;55844.97;5133386;27;20230;-75
2022/07/02 08:16:19;;;;;;;18.17;17.08;;;;;;;-141.02;100.00;55844.97;5133258;27;20251;-76
2022/07/02 08:18:46;;;;;;;18.05;16.98;;;;;;;-141.02;100.00;55844.97;5133306;27;20232;-73
2022/07/02 08:21:13;;;;;;;18.25;17.15;;;;;;;-141.02;100.00;55844.97;5133542;27;20220;-76
2022/07/02 08:23:40;;;;;;;18.02;16.92;;;;;;;-141.02;100.00;55844.97;5133196;27;20239;-75
2022/07/02 08:26:07;;;;;;;18.98;17.83;;;;;;;-141.02;100.00;55844.97;5133531;27;20207;-75
2022/07/02 08:28:35;;;;;;;20.02;18.83;;;;;;;-141.02;100.00;55844.97;5133070;27;20225;-77
2022/07/02 08:31:03;;;;;;;22.02;20.73;;;;;;;-141.02;100.00;55844.97;5133186;27;20197;-76
2022/07/02 08:33:30;;;;;;;23.13;21.73;;;;;;;-141.02;100.00;55844.97;5133377;27;20279;-75
2022/07/02 08:35:57;;;;;;;20.25;19.05;;;;;;;-141.02;100.00;55844.97;5132931;27;20253;-75
2022/07/02 08:38:24;;;;;;;20.35;19.15;;;;;;;-141.02;100.00;55844.97;5133009;27;20584;-73
2022/07/02 08:40:52;;;;;;;18.63;17.52;;;;;;;-141.02;100.00;55844.97;5133169;27;20291;-76
2022/07/02 08:43:23;;;;;;;17.90;16.90;;;;;;;-141.02;100.00;55844.97;5133327;27;20199;-75
2022/07/02 08:45:52;;;;;;;22.98;21.65;;;;;;;-141.02;100.00;55844.97;5133296;27;20691;-75
2022/07/02 08:48:22;;;;;;;18.90;17.70;;;;;;;-141.02;100.00;55844.97;5133402;28;20200;-75
2022/07/02 08:50:50;;;;;;;22.90;21.60;;;;;;;-141.02;100.00;55844.97;5133170;28;20201;-76
2022/07/02 08:53:18;;;;;;;22.60;21.30;;;;;;;-141.02;100.00;55844.97;5133259;27;20220;-76
2022/07/02 08:55:48;;;;;;;22.10;20.80;;;;;;;-141.02;100.00;55844.97;5132846;28;20188;-75
2022/07/02 08:58:16;;;;;;;22.15;20.85;;;;;;;-141.02;100.00;55844.97;5132849;28;20197;-76
2022/07/02 09:00:43;;;;;;;19.83;18.63;;;;;;;-141.02;100.00;55844.97;5132748;28;20700;-75
2022/07/02 09:03:13;;;;;;;20.58;19.30;;;;;;;-141.02;100.00;55844.97;5132733;28;20666;-76
2022/07/02 09:05:43;;;;;;;18.25;17.15;;;;;;;-141.02;100.00;55844.97;5133120;27;20287;-76
2022/07/02 09:08:12;;;;;;;22.98;21.58;;;;;;;-141.02;100.00;55844.97;5132690;28;20196;-75
2022/07/02 09:10:40;;;;;;;22.77;21.42;;;;;;;-141.02;100.00;55844.97;5132731;27;20279;-77
2022/07/02 09:13:07;;;;;;;18.60;17.40;;;;;;;-141.02;100.00;55844.97;5132997;28;20239;-76
2022/07/02 09:15:36;;;;;;;20.00;18.80;;;;;;;-141.02;100.00;55844.97;5132711;28;20756;-76
2022/07/02 09:18:03;;;;;;;19.40;18.20;;;;;;;-141.02;100.00;55844.97;5132971;28;20196;-76
2022/07/02 09:20:29;;;;;;;20.75;19.45;;;;;;;-141.02;100.00;55844.97;5132631;28;20199;-77
2022/07/02 09:22:58;;;;;;;20.90;19.70;;;;;;;-141.02;100.00;55844.97;5132857;28;20319;-76
2022/07/02 09:25:26;;;;;;;19.35;18.17;;;;;;;-141.02;100.00;55844.97;5132547;28;20641;-75
2022/07/02 09:27:59;;;;;;;19.25;18.05;;;;;;;-141.02;100.00;55844.97;5132611;28;20681;-76
2022/07/02 09:30:29;;;;;;;20.52;19.33;;;;;;;-141.02;100.00;55844.97;5132904;28;20184;-76
2022/07/02 09:35:37;;;;;;;19.15;17.95;;;;;;;-141.02;100.00;55844.97;5132179;28;20199;-75
2022/07/02 09:38:10;;;;;;;18.83;17.63;;;;;;;-141.02;100.00;55844.97;5132239;28;20224;-75
2022/07/02 09:40:37;;;;;;;19.40;18.20;;;;;;;-141.02;100.00;55844.97;5132768;27;20185;-76
2022/07/02 09:43:05;;;;;;;18.88;17.67;;;;;;;-141.02;100.00;55844.97;5132632;28;20224;-78
2022/07/02 09:45:32;;;;;;;19.67;18.38;;;;;;;-141.02;100.00;55844.97;5132335;28;20189;-74
2022/07/02 09:48:03;;;;;;;20.08;18.77;;;;;;;-141.02;100.00;55844.97;5132514;27;20574;-76
2022/07/02 09:50:39;;;;;;;20.90;19.52;;;;;;;-141.02;100.00;55844.97;5136494;27;20189;-77
2022/07/02 09:53:12;;;;;;;19.45;18.15;;;;;;;-141.02;100.00;55844.97;5136017;27;20279;-76
2022/07/02 09:55:40;;;;;;;19.27;17.98;;;;;;;-141.02;100.00;55844.97;5136359;27;20223;-75
2022/07/02 09:58:08;;;;;;;19.73;18.42;;;;;;;-141.02;100.00;55844.97;5135929;27;20254;-75
2022/07/02 10:00:43;;;;;;;20.08;18.77;;;;;;;-141.02;100.00;55844.97;5135997;27;20200;-77
2022/07/02 10:03:10;;;;;;;20.00;18.70;;;;;;;-141.02;100.00;55844.97;5135735;27;20264;-76
2022/07/02 10:05:37;;;;;;;21.15;19.85;;;;;;;-141.02;100.00;55844.97;5136107;27;20195;-76
2022/07/02 10:08:06;;;;;;;19.67;18.48;;;;;;;-141.02;100.00;55844.97;5135779;27;20193;-76
2022/07/02 10:10:36;;;;;;;19.20;18.00;;;;;;;-141.02;100.00;55844.97;5135718;27;20196;-76
2022/07/02 10:13:05;;;;;;;18.92;17.73;;;;;;;-141.02;100.00;55844.97;5136052;27;20539;-76
2022/07/02 10:15:34;;;;;;;19.10;17.90;;;;;;;-141.02;100.00;55844.97;5135584;27;20681;-77
2022/07/02 10:18:02;;;;;;;20.77;19.48;;;;;;;-141.02;100.00;55844.97;5135853;27;20198;-76
2022/07/02 10:20:30;;;;;;;22.13;20.73;;;;;;;-141.02;100.00;55844.97;5135823;27;20224;-76
2022/07/02 10:23:00;;;;;;;22.60;21.20;;;;;;;-141.02;100.00;55844.97;5135423;27;20646;-77
2022/07/02 10:25:27;;;;;;;19.05;17.85;;;;;;;-141.02;100.00;55844.97;5135428;27;20708;-76
2022/07/02 10:27:55;;;;;;;18.88;17.67;;;;;;;-141.02;100.00;55844.97;5135463;27;20199;-75
2022/07/02 10:30:26;;;;;;;19.42;18.13;;;;;;;-141.02;100.00;55844.97;5135679;27;20193;-77
2022/07/02 10:33:05;;;;;;;19.38;18.17;;;;;;;-141.02;100.00;55844.97;5135630;27;20184;-76
2022/07/02 10:35:34;;;;;;;19.65;18.42;;;;;;;-141.02;100.00;55844.97;5135572;27;20195;-76
2022/07/02 10:38:02;;;;;;;19.05;17.85;;;;;;;-141.02;100.00;55844.97;5135194;27;20236;-77
2022/07/02 10:40:29;;;;;;;19.23;18.02;;;;;;;-141.02;100.00;55844.97;5135134;27;20192;-76
2022/07/02 10:42:59;;;;;;;19.45;18.25;;;;;;;-141.02;100.00;55844.97;5135265;27;20228;-76
2022/07/02 10:45:28;;;;;;;19.90;18.60;;;;;;;-141.02;100.00;55844.97;5135377;27;20275;-77
2022/07/02 10:47:58;;;;;;;19.70;18.40;;;;;;;-141.02;100.00;55844.97;5135269;27;20200;-76
2022/07/02 10:50:28;;;;;;;19.40;18.10;;;;;;;-141.02;100.00;55844.97;5135333;27;20607;-76
2022/07/02 10:52:55;;;;;;;19.38;18.10;;;;;;;-141.02;100.00;55844.97;5135242;27;20189;-76
2022/07/02 10:55:30;;;;;;;18.98;17.77;;;;;;;-141.02;100.00;55844.97;5135186;27;20228;-74
2022/07/02 10:57:59;;;;;;;19.38;18.08;;;;;;;-141.02;100.00;55844.97;5135137;27;20217;-73
2022/07/02 11:00:32;;;;;;;19.15;17.95;;;;;;;-141.02;100.00;55844.97;5134396;27;20197;-78
2022/07/02 11:02:59;;;;;;;20.02;18.73;;;;;;;-141.02;100.00;55844.97;5134646;27;20658;-77